createdAt,value
2019-06-07T00:00:29.624Z,50.09
2019-06-07T00:01:11.319Z,50.18
2019-06-07T00:02:10.662Z,50.18
2019-06-07T00:03:15.797Z,50.38
2019-06-07T00:04:12.045Z,50.38
2019-06-07T00:05:10.117Z,50.18
2019-06-07T00:06:13.045Z,50.18
2019-06-07T00:07:12.598Z,50.06
2019-06-07T00:08:17.198Z,50.09
2019-06-07T00:09:12.640Z,50.18
2019-06-07T00:10:15.421Z,50.26
2019-06-07T00:11:15.078Z,49.99
2019-06-07T00:12:12.244Z,50.09
2019-06-07T00:13:09.865Z,50.18
2019-06-07T00:14:13.054Z,50.18
2019-06-07T00:15:14.433Z,50.18
2019-06-07T00:16:11.937Z,50.18
2019-06-07T00:17:12.511Z,50.18
2019-06-07T00:18:11.839Z,50.18
2019-06-07T00:19:09.698Z,49.79
2019-06-07T00:20:14.766Z,49.79
2019-06-07T00:21:11.790Z,49.88
2019-06-07T00:22:30.032Z,49.69
2019-06-07T00:23:12.274Z,49.69
2019-06-07T00:24:13.064Z,49.88
2019-06-07T00:25:13.384Z,50.09
2019-06-07T00:26:10.848Z,50.09
2019-06-07T00:27:11.015Z,49.79
2019-06-07T00:28:10.701Z,49.69
2019-06-07T00:29:11.763Z,49.88
2019-06-07T00:30:32.746Z,50.18
2019-06-07T00:31:11.521Z,49.69
2019-06-07T00:32:09.428Z,49.59
2019-06-07T00:33:11.037Z,49.69
2019-06-07T00:34:11.873Z,49.59
2019-06-07T00:35:09.516Z,49.49
2019-06-07T00:36:10.083Z,49.59
2019-06-07T00:37:11.195Z,49.69
2019-06-07T00:38:09.457Z,49.59
2019-06-07T00:39:10.656Z,49.79
2019-06-07T00:40:16.966Z,49.69
2019-06-07T00:41:10.206Z,49.69
2019-06-07T00:42:10.836Z,49.69
2019-06-07T00:43:13.353Z,49.79
2019-06-07T00:44:10.313Z,49.79
2019-06-07T00:45:11.025Z,49.99
2019-06-07T00:46:12.852Z,49.79
2019-06-07T00:47:10.590Z,49.99
2019-06-07T00:48:16.179Z,49.29
2019-06-07T00:49:13.161Z,49.99
2019-06-07T00:50:11.126Z,49.99
2019-06-07T00:51:09.111Z,49.79
2019-06-07T00:52:09.182Z,49.99
2019-06-07T00:53:17.177Z,49.99
2019-06-07T00:54:11.877Z,49.79
2019-06-07T00:55:09.156Z,49.88
2019-06-07T00:56:09.139Z,49.79
2019-06-07T00:57:09.122Z,49.79
2019-06-07T00:58:09.108Z,49.49
2019-06-07T00:59:11.514Z,49.59
2019-06-07T01:00:09.103Z,49.49
2019-06-07T01:01:09.085Z,49.59
2019-06-07T01:02:09.090Z,49.49
2019-06-07T01:03:09.084Z,49.19
2019-06-07T01:04:09.039Z,49.19
2019-06-07T01:05:09.098Z,49.39
2019-06-07T01:06:09.021Z,49.29
2019-06-07T01:07:09.013Z,49.39
2019-06-07T01:08:09.021Z,49.39
2019-06-07T01:09:08.990Z,49.29
2019-06-07T01:10:08.982Z,49.29
2019-06-07T01:11:09.287Z,49.59
2019-06-07T01:12:08.948Z,49.39
2019-06-07T01:13:08.972Z,49.09
2019-06-07T01:14:08.970Z,49.39
2019-06-07T01:15:08.948Z,49.59
2019-06-07T01:16:08.909Z,49.49
2019-06-07T01:17:23.361Z,49.49
2019-06-07T01:18:35.776Z,48.99
2019-06-07T01:19:09.783Z,49.09
2019-06-07T01:20:08.861Z,49.19
2019-06-07T01:21:08.912Z,48.99
2019-06-07T01:22:08.896Z,48.99
2019-06-07T01:23:52.000Z,48.99
2019-06-07T01:24:12.487Z,49.19
2019-06-07T01:25:08.882Z,48.69
2019-06-07T01:26:08.883Z,48.99
2019-06-07T01:27:08.775Z,48.99
2019-06-07T01:28:08.820Z,49.09
2019-06-07T01:29:08.789Z,48.99
2019-06-07T01:30:08.755Z,48.99
2019-06-07T01:31:08.756Z,48.69
2019-06-07T01:32:08.732Z,48.90
2019-06-07T01:33:08.725Z,48.20
2019-06-07T01:34:08.776Z,48.40
2019-06-07T01:35:08.701Z,48.22
2019-06-07T01:36:08.734Z,48.20
2019-06-07T01:37:08.669Z,48.30
2019-06-07T01:38:08.666Z,48.20
2019-06-07T01:39:08.650Z,48.20
2019-06-07T01:40:08.715Z,48.40
2019-06-07T01:41:08.636Z,48.20
2019-06-07T01:42:08.611Z,48.40
2019-06-07T01:43:08.623Z,48.40
2019-06-07T01:44:08.592Z,48.20
2019-06-07T01:45:08.590Z,48.40
2019-06-07T01:46:08.615Z,48.30
2019-06-07T01:47:08.565Z,48.20
2019-06-07T01:48:08.555Z,48.20
2019-06-07T01:49:08.539Z,48.40
2019-06-07T01:50:08.533Z,48.30
2019-06-07T01:51:08.511Z,48.30
2019-06-07T01:52:08.554Z,48.20
2019-06-07T01:53:08.498Z,48.40
2019-06-07T01:55:09.425Z,48.50
2019-06-07T01:56:08.458Z,48.50
2019-06-07T01:57:08.471Z,48.40
2019-06-07T01:58:09.390Z,48.60
2019-06-07T01:59:08.439Z,48.69
2019-06-07T02:00:08.417Z,48.69
2019-06-07T02:01:08.401Z,48.69
2019-06-07T02:02:08.406Z,48.69
2019-06-07T02:03:08.387Z,48.80
2019-06-07T02:04:08.397Z,48.80
2019-06-07T02:05:08.397Z,48.50
2019-06-07T02:06:08.357Z,48.60
2019-06-07T02:07:08.332Z,48.69
2019-06-07T02:08:08.337Z,48.80
2019-06-07T02:09:08.327Z,48.69
2019-06-07T02:10:08.308Z,48.60
2019-06-07T02:11:08.348Z,48.80
2019-06-07T02:12:25.005Z,48.80
2019-06-07T02:13:09.181Z,48.80
2019-06-07T02:14:08.264Z,48.69
2019-06-07T02:15:08.246Z,48.60
2019-06-07T02:16:08.233Z,48.90
2019-06-07T02:17:11.120Z,48.80
2019-06-07T02:18:08.230Z,48.80
2019-06-07T02:19:08.197Z,48.90
2019-06-07T02:20:08.243Z,48.69
2019-06-07T02:21:08.181Z,48.60
2019-06-07T02:22:08.172Z,48.80
2019-06-07T02:23:08.192Z,48.69
2019-06-07T02:24:08.156Z,48.60
2019-06-07T02:26:09.022Z,48.80
2019-06-07T02:27:08.116Z,48.80
2019-06-07T02:28:27.432Z,48.80
2019-06-07T02:29:09.048Z,48.60
2019-06-07T02:30:36.888Z,48.80
2019-06-07T02:31:08.997Z,48.80
2019-06-07T02:32:08.057Z,48.40
2019-06-07T02:33:08.046Z,48.60
2019-06-07T02:34:08.038Z,48.69
2019-06-07T02:35:08.059Z,48.80
2019-06-07T02:36:08.013Z,48.69
2019-06-07T02:37:08.013Z,48.40
2019-06-07T02:38:07.992Z,48.82
2019-06-07T02:39:07.992Z,48.60
2019-06-07T02:40:07.976Z,48.60
2019-06-07T02:41:08.006Z,48.80
2019-06-07T02:42:07.947Z,48.50
2019-06-07T02:43:08.086Z,48.80
2019-06-07T02:44:07.928Z,48.80
2019-06-07T02:45:07.907Z,48.60
2019-06-07T02:46:25.322Z,48.60
2019-06-07T02:47:08.838Z,48.60
2019-06-07T02:48:07.882Z,48.69
2019-06-07T02:49:07.862Z,48.60
2019-06-07T02:50:07.858Z,48.60
2019-06-07T02:51:07.752Z,48.40
2019-06-07T02:52:07.830Z,48.80
2019-06-07T02:53:07.918Z,48.80
2019-06-07T02:54:07.813Z,48.60
2019-06-07T02:55:07.790Z,48.80
2019-06-07T02:57:08.684Z,48.69
2019-06-07T02:58:07.811Z,48.80
2019-06-07T02:59:07.796Z,48.69
2019-06-07T03:00:40.644Z,48.72
2019-06-07T03:01:09.927Z,48.69
2019-06-07T03:02:07.720Z,48.80
2019-06-07T03:03:07.703Z,48.69
2019-06-07T03:04:07.689Z,48.52
2019-06-07T03:05:07.741Z,48.90
2019-06-07T03:06:07.673Z,48.90
2019-06-07T03:07:07.679Z,48.82
2019-06-07T03:08:07.648Z,48.72
2019-06-07T03:09:07.638Z,48.82
2019-06-07T03:10:07.632Z,48.72
2019-06-07T03:11:07.667Z,48.72
2019-06-07T03:12:07.604Z,48.80
2019-06-07T03:13:07.595Z,48.80
2019-06-07T03:14:07.589Z,48.72
2019-06-07T03:15:07.577Z,48.80
2019-06-07T03:16:07.560Z,48.82
2019-06-07T03:17:07.595Z,48.82
2019-06-07T03:18:07.593Z,48.72
2019-06-07T03:19:07.539Z,48.72
2019-06-07T03:20:07.510Z,48.52
2019-06-07T03:21:07.510Z,48.92
2019-06-07T03:22:07.494Z,48.92
2019-06-07T03:23:10.082Z,48.62
2019-06-07T03:24:07.471Z,48.90
2019-06-07T03:25:07.466Z,48.52
2019-06-07T03:26:07.469Z,48.62
2019-06-07T03:28:08.379Z,48.72
2019-06-07T03:29:07.478Z,48.72
2019-06-07T03:30:35.961Z,48.80
2019-06-07T03:31:08.304Z,48.82
2019-06-07T03:32:07.396Z,48.82
2019-06-07T03:33:07.391Z,48.90
2019-06-07T03:34:07.359Z,48.92
2019-06-07T03:35:07.400Z,48.72
2019-06-07T03:36:22.864Z,48.72
2019-06-07T03:37:08.237Z,48.82
2019-06-07T03:38:07.314Z,48.52
2019-06-07T03:39:07.299Z,48.82
2019-06-07T03:40:07.298Z,48.72
2019-06-07T03:41:07.231Z,48.92
2019-06-07T03:42:08.636Z,48.82
2019-06-07T03:43:07.289Z,48.69
2019-06-07T03:44:07.255Z,48.80
2019-06-07T03:45:07.247Z,48.99
2019-06-07T03:46:07.278Z,48.90
2019-06-07T03:47:07.215Z,48.80
2019-06-07T03:48:07.226Z,48.62
2019-06-07T03:49:07.193Z,48.62
2019-06-07T03:50:07.179Z,48.82
2019-06-07T03:52:08.209Z,48.62
2019-06-07T03:53:09.781Z,48.62
2019-06-07T03:54:07.135Z,48.69
2019-06-07T03:55:07.137Z,48.52
2019-06-07T03:56:07.194Z,48.72
2019-06-07T03:57:07.111Z,48.82
2019-06-07T03:59:08.007Z,48.80
2019-06-07T04:00:07.085Z,48.80
2019-06-07T04:01:07.072Z,48.22
2019-06-07T04:02:07.061Z,48.22
2019-06-07T04:03:07.028Z,48.20
2019-06-07T04:04:07.071Z,48.40
2019-06-07T04:05:07.025Z,48.69
2019-06-07T04:06:07.005Z,48.69
2019-06-07T04:07:06.992Z,48.69
2019-06-07T04:08:06.982Z,48.22
2019-06-07T04:09:07.012Z,48.20
2019-06-07T04:10:07.015Z,48.20
2019-06-07T04:11:06.966Z,48.30
2019-06-07T04:12:06.937Z,48.30
2019-06-07T04:13:06.919Z,48.60
2019-06-07T04:14:06.987Z,48.42
2019-06-07T04:15:06.905Z,48.40
2019-06-07T04:16:06.932Z,48.60
2019-06-07T04:17:06.888Z,48.40
2019-06-07T04:18:06.876Z,47.92
2019-06-07T04:19:06.857Z,48.30
2019-06-07T04:20:06.862Z,48.10
2019-06-07T04:21:06.832Z,48.20
2019-06-07T04:22:06.902Z,48.10
2019-06-07T04:23:27.306Z,47.80
2019-06-07T04:24:07.720Z,48.52
2019-06-07T04:25:06.780Z,48.50
2019-06-07T04:26:06.793Z,48.50
2019-06-07T04:27:06.767Z,48.40
2019-06-07T04:28:06.822Z,48.50
2019-06-07T04:29:32.278Z,48.40
2019-06-07T04:30:08.380Z,48.40
2019-06-07T04:31:06.725Z,48.60
2019-06-07T04:32:06.721Z,48.20
2019-06-07T04:33:06.699Z,48.40
2019-06-07T04:34:06.733Z,47.90
2019-06-07T04:35:06.672Z,48.00
2019-06-07T04:36:06.670Z,48.10
2019-06-07T04:37:06.653Z,48.10
2019-06-07T04:38:06.642Z,48.10
2019-06-07T04:39:06.636Z,48.20
2019-06-07T04:40:06.645Z,48.20
2019-06-07T04:41:06.612Z,47.90
2019-06-07T04:42:06.597Z,48.30
2019-06-07T04:43:06.616Z,47.21
2019-06-07T04:44:06.630Z,48.20
2019-06-07T04:45:06.559Z,47.50
2019-06-07T04:46:06.570Z,47.61
2019-06-07T04:47:06.575Z,47.80
2019-06-07T04:48:06.587Z,47.31
2019-06-07T04:49:09.265Z,47.41
2019-06-07T04:50:06.541Z,47.61
2019-06-07T04:51:06.553Z,47.50
2019-06-07T04:52:06.487Z,47.50
2019-06-07T04:53:06.555Z,47.71
2019-06-07T04:54:06.456Z,47.71
2019-06-07T04:55:06.454Z,47.71
2019-06-07T04:56:06.446Z,47.50
2019-06-07T04:57:06.461Z,47.50
2019-06-07T04:58:06.429Z,47.71
2019-06-07T04:59:06.455Z,47.71
2019-06-07T05:00:46.909Z,47.71
2019-06-07T05:01:24.351Z,47.61
2019-06-07T05:02:07.303Z,47.71
2019-06-07T05:03:06.275Z,47.61
2019-06-07T05:04:06.261Z,47.61
2019-06-07T05:05:06.396Z,47.21
2019-06-07T05:06:06.230Z,47.90
2019-06-07T05:07:06.229Z,47.61
2019-06-07T05:08:07.872Z,47.61
2019-06-07T05:09:07.301Z,47.21
2019-06-07T05:10:06.192Z,47.61
2019-06-07T05:11:06.238Z,47.11
2019-06-07T05:12:06.261Z,47.61
2019-06-07T05:13:06.255Z,47.80
2019-06-07T05:14:06.231Z,47.11
2019-06-07T05:15:06.234Z,46.91
2019-06-07T05:16:06.207Z,46.91
2019-06-07T05:17:06.249Z,46.91
2019-06-07T05:18:06.182Z,46.79
2019-06-07T05:19:08.785Z,46.81
2019-06-07T05:20:06.171Z,47.19
2019-06-07T05:21:06.177Z,47.21
2019-06-07T05:22:06.157Z,47.80
2019-06-07T05:23:06.109Z,47.21
2019-06-07T05:24:09.985Z,47.61
2019-06-07T05:25:06.125Z,47.90
2019-06-07T05:26:06.066Z,47.61
2019-06-07T05:27:06.299Z,47.61
2019-06-07T05:28:06.082Z,47.71
2019-06-07T05:29:06.114Z,47.61
2019-06-07T05:30:23.885Z,47.01
2019-06-07T05:31:07.994Z,47.71
2019-06-07T05:32:06.121Z,47.01
2019-06-07T05:33:06.055Z,47.61
2019-06-07T05:34:06.075Z,47.90
2019-06-07T05:35:06.062Z,47.90
2019-06-07T05:36:06.012Z,47.61
2019-06-07T05:37:11.703Z,47.80
2019-06-07T05:38:06.963Z,47.61
2019-06-07T05:39:05.952Z,47.21
2019-06-07T05:40:05.944Z,47.11
2019-06-07T05:41:05.938Z,47.61
2019-06-07T05:42:05.849Z,46.89
2019-06-07T05:43:05.876Z,47.31
2019-06-07T05:44:12.469Z,46.81
2019-06-07T05:45:06.954Z,47.21
2019-06-07T05:46:05.790Z,47.31
2019-06-07T05:47:05.785Z,46.98
2019-06-07T05:48:05.775Z,46.98
2019-06-07T05:49:05.826Z,46.89
2019-06-07T05:50:05.849Z,46.98
2019-06-07T05:51:05.838Z,46.98
2019-06-07T05:52:05.720Z,46.89
2019-06-07T05:53:05.735Z,47.11
2019-06-07T05:54:05.694Z,46.89
2019-06-07T05:55:05.757Z,47.19
2019-06-07T05:56:05.686Z,47.09
2019-06-07T05:57:05.679Z,47.19
2019-06-07T05:58:05.655Z,47.28
2019-06-07T05:59:05.651Z,47.28
2019-06-07T06:00:05.674Z,47.41
2019-06-07T06:01:41.589Z,46.89
2019-06-07T06:02:21.843Z,46.89
2019-06-07T06:03:06.590Z,46.98
2019-06-07T06:04:05.676Z,47.68
2019-06-07T06:05:05.695Z,47.78
2019-06-07T06:06:05.603Z,48.08
2019-06-07T06:07:05.684Z,48.38
2019-06-07T06:08:05.634Z,48.47
2019-06-07T06:09:13.778Z,48.57
2019-06-07T06:10:06.599Z,48.77
2019-06-07T06:11:05.618Z,48.77
2019-06-07T06:12:05.590Z,48.87
2019-06-07T06:13:05.613Z,48.47
2019-06-07T06:14:08.330Z,49.07
2019-06-07T06:15:05.473Z,48.97
2019-06-07T06:16:05.445Z,48.38
2019-06-07T06:17:05.445Z,48.27
2019-06-07T06:18:05.430Z,48.57
2019-06-07T06:19:05.459Z,48.57
2019-06-07T06:20:05.566Z,48.47
2019-06-07T06:21:18.913Z,48.47
2019-06-07T06:22:06.401Z,48.57
2019-06-07T06:23:05.363Z,48.67
2019-06-07T06:24:05.350Z,48.47
2019-06-07T06:25:34.537Z,48.47
2019-06-07T06:26:06.353Z,48.67
2019-06-07T06:27:28.432Z,48.38
2019-06-07T06:28:12.070Z,48.67
2019-06-07T06:29:06.297Z,48.97
2019-06-07T06:30:05.287Z,48.67
2019-06-07T06:31:05.333Z,48.57
2019-06-07T06:33:06.290Z,48.67
2019-06-07T06:34:05.294Z,48.47
2019-06-07T06:35:05.245Z,48.87
2019-06-07T06:36:05.301Z,48.57
2019-06-07T06:37:05.212Z,48.67
2019-06-07T06:38:05.210Z,48.77
2019-06-07T06:39:05.288Z,48.47
2019-06-07T06:40:05.223Z,48.55
2019-06-07T06:41:15.729Z,48.47
2019-06-07T06:42:06.163Z,48.55
2019-06-07T06:43:05.155Z,48.47
2019-06-07T06:44:05.229Z,48.57
2019-06-07T06:45:05.212Z,48.55
2019-06-07T06:46:05.243Z,48.55
2019-06-07T06:47:05.144Z,48.47
2019-06-07T06:48:05.106Z,48.67
2019-06-07T06:49:05.088Z,48.65
2019-06-07T06:50:05.069Z,48.75
2019-06-07T06:51:05.073Z,48.94
2019-06-07T06:52:05.079Z,48.85
2019-06-07T06:53:05.035Z,48.85
2019-06-07T06:54:05.073Z,48.75
2019-06-07T06:55:05.018Z,48.65
2019-06-07T06:56:05.829Z,48.85
2019-06-07T06:57:19.264Z,48.75
2019-06-07T06:58:06.349Z,48.94
2019-06-07T07:00:06.031Z,48.55
2019-06-07T07:01:06.828Z,49.74
2019-06-07T07:02:04.982Z,48.94
2019-06-07T07:03:47.337Z,49.84
2019-06-07T07:04:13.012Z,50.34
2019-06-07T07:05:05.905Z,50.53
2019-06-07T07:06:24.632Z,50.04
2019-06-07T07:07:05.969Z,50.04
2019-06-07T07:08:04.914Z,50.23
2019-06-07T07:09:04.861Z,50.13
2019-06-07T07:10:04.938Z,50.73
2019-06-07T07:11:04.929Z,50.73
2019-06-07T07:12:11.698Z,50.73
2019-06-07T07:13:05.979Z,50.73
2019-06-07T07:14:04.882Z,50.71
2019-06-07T07:15:06.269Z,50.63
2019-06-07T07:16:04.875Z,50.73
2019-06-07T07:17:04.867Z,50.53
2019-06-07T07:18:08.709Z,50.51
2019-06-07T07:19:04.843Z,50.60
2019-06-07T07:20:04.783Z,50.63
2019-06-07T07:21:04.722Z,50.93
2019-06-07T07:22:04.713Z,50.71
2019-06-07T07:23:04.803Z,50.34
2019-06-07T07:24:20.097Z,49.91
2019-06-07T07:25:05.674Z,49.32
2019-06-07T07:26:04.682Z,49.22
2019-06-07T07:27:04.669Z,48.72
2019-06-07T07:28:04.797Z,48.45
2019-06-07T07:29:04.646Z,48.03
2019-06-07T07:30:35.284Z,46.94
2019-06-07T07:31:05.629Z,47.16
2019-06-07T07:32:04.667Z,47.06
2019-06-07T07:33:06.276Z,46.86
2019-06-07T07:35:05.575Z,47.26
2019-06-07T07:36:23.152Z,46.67
2019-06-07T07:37:05.601Z,47.16
2019-06-07T07:38:04.630Z,46.67
2019-06-07T07:39:05.603Z,47.36
2019-06-07T07:40:54.969Z,46.57
2019-06-07T07:41:14.410Z,46.67
2019-06-07T07:42:20.192Z,47.53
2019-06-07T07:43:05.657Z,46.67
2019-06-07T07:44:07.038Z,47.16
2019-06-07T07:45:04.635Z,47.56
2019-06-07T07:46:27.934Z,47.46
2019-06-07T07:47:05.439Z,46.86
2019-06-07T07:48:15.274Z,46.94
2019-06-07T07:49:05.614Z,47.26
2019-06-07T07:50:04.509Z,46.37
2019-06-07T07:51:04.540Z,46.67
2019-06-07T07:52:04.503Z,46.86
2019-06-07T07:53:04.483Z,47.06
2019-06-07T07:54:10.764Z,47.46
2019-06-07T07:55:05.500Z,46.77
2019-06-07T07:56:04.635Z,47.16
2019-06-07T07:57:04.478Z,47.16
2019-06-07T07:58:04.417Z,46.94
2019-06-07T07:59:04.625Z,47.16
2019-06-07T08:00:47.818Z,47.16
2019-06-07T08:01:10.601Z,46.57
2019-06-07T08:02:05.416Z,46.77
2019-06-07T08:03:04.787Z,47.26
2019-06-07T08:04:04.372Z,47.63
2019-06-07T08:05:21.067Z,47.66
2019-06-07T08:06:05.412Z,47.56
2019-06-07T08:07:04.240Z,47.46
2019-06-07T08:08:07.442Z,46.94
2019-06-07T08:09:04.220Z,46.97
2019-06-07T08:10:04.601Z,46.94
2019-06-07T08:11:04.171Z,46.97
2019-06-07T08:12:04.176Z,46.86
2019-06-07T08:13:23.601Z,47.26
2019-06-07T08:14:05.199Z,46.86
2019-06-07T08:15:04.286Z,47.04
2019-06-07T08:16:10.871Z,46.97
2019-06-07T08:17:05.136Z,46.94
2019-06-07T08:18:04.820Z,47.34
2019-06-07T08:19:04.696Z,47.34
2019-06-07T08:20:04.106Z,47.36
2019-06-07T08:21:21.900Z,47.24
2019-06-07T08:22:05.054Z,47.44
2019-06-07T08:23:04.049Z,47.53
2019-06-07T08:24:05.348Z,46.74
2019-06-07T08:25:04.574Z,47.14
2019-06-07T08:26:04.011Z,47.53
2019-06-07T08:27:24.353Z,47.63
2019-06-07T08:28:04.995Z,47.63
2019-06-07T08:29:03.987Z,48.23
2019-06-07T08:30:35.417Z,47.83
2019-06-07T08:31:07.117Z,47.93
2019-06-07T08:32:03.978Z,47.93
2019-06-07T08:33:24.902Z,48.03
2019-06-07T08:34:04.929Z,48.03
2019-06-07T08:35:06.685Z,48.43
2019-06-07T08:36:16.952Z,48.03
2019-06-07T08:37:04.891Z,48.03
2019-06-07T08:38:46.608Z,48.13
2019-06-07T08:39:07.476Z,48.63
2019-06-07T08:40:03.882Z,48.63
2019-06-07T08:41:11.453Z,48.63
2019-06-07T08:42:15.460Z,48.63
2019-06-07T08:43:18.116Z,48.72
2019-06-07T08:44:22.689Z,48.72
2019-06-07T08:45:05.716Z,48.43
2019-06-07T08:46:07.443Z,48.43
2019-06-07T08:47:19.403Z,48.63
2019-06-07T08:48:18.214Z,48.72
2019-06-07T08:49:04.951Z,48.63
2019-06-07T08:50:07.903Z,48.53
2019-06-07T08:51:08.275Z,48.63
2019-06-07T08:52:11.452Z,48.53
2019-06-07T08:53:11.862Z,48.63
2019-06-07T08:54:21.765Z,48.53
2019-06-07T08:55:05.322Z,48.33
2019-06-07T08:56:09.016Z,48.53
2019-06-07T08:57:19.323Z,48.53
2019-06-07T08:58:08.536Z,48.63
2019-06-07T08:59:11.096Z,48.33
2019-06-07T09:00:16.180Z,48.43
2019-06-07T09:01:08.472Z,48.43
2019-06-07T09:02:14.678Z,48.53
2019-06-07T09:03:07.173Z,48.33
2019-06-07T09:04:10.501Z,48.23
2019-06-07T09:05:11.764Z,48.13
2019-06-07T09:06:16.139Z,48.63
2019-06-07T09:07:18.179Z,49.12
2019-06-07T09:08:28.640Z,49.32
2019-06-07T09:09:05.386Z,49.12
2019-06-07T09:10:09.555Z,49.22
2019-06-07T09:11:10.234Z,49.42
2019-06-07T09:12:08.119Z,49.52
2019-06-07T09:13:10.842Z,49.71
2019-06-07T09:14:08.855Z,49.52
2019-06-07T09:15:19.872Z,49.62
2019-06-07T09:16:08.199Z,49.91
2019-06-07T09:17:11.032Z,49.71
2019-06-07T09:19:10.672Z,49.81
2019-06-07T09:20:08.940Z,49.91
2019-06-07T09:21:09.383Z,49.79
2019-06-07T09:22:10.675Z,50.48
2019-06-07T09:23:15.731Z,50.09
2019-06-07T09:24:11.308Z,50.18
2019-06-07T09:25:17.226Z,50.18
2019-06-07T09:26:15.358Z,50.48
2019-06-07T09:27:07.670Z,50.18
2019-06-07T09:28:14.114Z,50.09
2019-06-07T09:29:08.718Z,50.18
2019-06-07T09:30:11.245Z,50.21
2019-06-07T09:31:09.903Z,50.09
2019-06-07T09:32:10.075Z,50.09
2019-06-07T09:33:06.919Z,50.09
2019-06-07T09:34:07.994Z,50.21
2019-06-07T09:35:08.113Z,50.09
2019-06-07T09:36:07.994Z,50.29
2019-06-07T09:37:54.703Z,50.29
2019-06-07T09:38:14.363Z,50.29
2019-06-07T09:39:09.572Z,50.48
2019-06-07T09:40:20.459Z,49.99
2019-06-07T09:41:06.155Z,50.98
2019-06-07T09:42:08.441Z,51.07
2019-06-07T09:43:54.272Z,50.98
2019-06-07T09:44:19.006Z,50.98
2019-06-07T09:45:08.731Z,50.68
2019-06-07T09:46:11.452Z,50.88
2019-06-07T09:47:22.276Z,50.48
2019-06-07T09:48:11.570Z,50.68
2019-06-07T09:49:22.921Z,50.88
2019-06-07T09:50:09.027Z,50.48
2019-06-07T09:51:09.697Z,50.29
2019-06-07T09:52:10.337Z,50.38
2019-06-07T09:53:13.975Z,50.48
2019-06-07T09:54:08.141Z,50.48
2019-06-07T09:55:12.406Z,49.79
2019-06-07T09:56:08.374Z,50.48
2019-06-07T09:57:07.793Z,50.68
2019-06-07T09:58:47.769Z,50.68
2019-06-07T09:59:07.465Z,50.88
2019-06-07T10:00:36.089Z,50.98
2019-06-07T10:01:09.933Z,50.68
2019-06-07T10:02:08.234Z,50.98
2019-06-07T10:03:15.787Z,50.98
2019-06-07T10:04:09.148Z,50.98
2019-06-07T10:05:07.463Z,50.88
2019-06-07T10:06:09.713Z,50.38
2019-06-07T10:07:13.287Z,50.48
2019-06-07T10:08:16.093Z,50.78
2019-06-07T10:10:25.778Z,50.78
2019-06-07T10:11:04.735Z,50.95
2019-06-07T10:12:02.853Z,50.66
2019-06-07T10:13:04.035Z,50.78
2019-06-07T10:14:02.857Z,50.48
2019-06-07T10:15:03.121Z,50.78
2019-06-07T10:16:02.859Z,51.05
2019-06-07T10:17:03.181Z,50.78
2019-06-07T10:18:02.900Z,51.25
2019-06-07T10:19:03.703Z,51.07
2019-06-07T10:20:04.023Z,51.18
2019-06-07T10:21:03.715Z,50.85
2019-06-07T10:22:03.384Z,51.25
2019-06-07T10:23:03.691Z,51.54
2019-06-07T10:24:03.469Z,50.78
2019-06-07T10:25:04.274Z,51.54
2019-06-07T10:26:04.018Z,51.45
2019-06-07T10:27:04.041Z,51.18
2019-06-07T10:28:03.837Z,51.57
2019-06-07T10:29:04.879Z,50.88
2019-06-07T10:30:03.975Z,50.68
2019-06-07T10:31:04.404Z,50.56
2019-06-07T10:32:02.710Z,50.48
2019-06-07T10:33:02.636Z,50.58
2019-06-07T10:34:02.636Z,50.88
2019-06-07T10:35:03.321Z,50.88
2019-06-07T10:36:02.604Z,51.35
2019-06-07T10:37:04.925Z,51.35
2019-06-07T10:38:02.624Z,50.85
2019-06-07T10:39:02.949Z,51.57
2019-06-07T10:40:02.921Z,51.37
2019-06-07T10:41:02.875Z,51.35
2019-06-07T10:42:04.072Z,51.45
2019-06-07T10:43:02.942Z,51.35
2019-06-07T10:44:03.333Z,51.45
2019-06-07T10:45:04.475Z,51.65
2019-06-07T10:46:03.649Z,51.94
2019-06-07T10:47:03.848Z,51.84
2019-06-07T10:48:03.599Z,51.35
2019-06-07T10:49:03.676Z,51.45
2019-06-07T10:50:03.762Z,51.54
2019-06-07T10:51:02.447Z,51.25
2019-06-07T10:52:04.967Z,50.85
2019-06-07T10:53:02.516Z,50.85
2019-06-07T10:54:11.230Z,51.54
2019-06-07T10:55:04.565Z,51.65
2019-06-07T10:56:02.944Z,51.25
2019-06-07T10:57:02.925Z,51.54
2019-06-07T10:58:02.750Z,51.35
2019-06-07T10:59:03.084Z,50.85
2019-06-07T11:00:03.505Z,50.95
2019-06-07T11:01:03.362Z,51.15
2019-06-07T11:02:03.424Z,51.45
2019-06-07T11:03:03.608Z,50.85
2019-06-07T11:04:03.379Z,50.76
2019-06-07T11:05:03.701Z,51.15
2019-06-07T11:06:03.641Z,51.65
2019-06-07T11:07:02.488Z,51.75
2019-06-07T11:08:02.253Z,51.72
2019-06-07T11:09:02.262Z,51.52
2019-06-07T11:10:07.499Z,51.13
2019-06-07T11:11:03.853Z,50.73
2019-06-07T11:12:02.345Z,50.83
2019-06-07T11:13:02.222Z,50.53
2019-06-07T11:14:02.292Z,50.73
2019-06-07T11:15:02.288Z,50.43
2019-06-07T11:16:02.261Z,50.73
2019-06-07T11:17:02.273Z,50.13
2019-06-07T11:18:02.288Z,50.43
2019-06-07T11:19:02.246Z,50.34
2019-06-07T11:20:02.302Z,50.34
2019-06-07T11:21:02.205Z,50.13
2019-06-07T11:22:02.184Z,50.43
2019-06-07T11:23:02.178Z,50.76
2019-06-07T11:24:02.173Z,50.73
2019-06-07T11:25:02.426Z,50.83
2019-06-07T11:26:02.060Z,51.32
2019-06-07T11:27:02.061Z,51.42
2019-06-07T11:28:02.051Z,51.23
2019-06-07T11:29:02.046Z,50.63
2019-06-07T11:30:02.349Z,50.83
2019-06-07T11:31:02.012Z,50.73
2019-06-07T11:32:02.010Z,51.03
2019-06-07T11:33:01.999Z,50.63
2019-06-07T11:34:01.967Z,51.13
2019-06-07T11:35:01.968Z,50.43
2019-06-07T11:36:02.007Z,50.43
2019-06-07T11:37:02.050Z,50.53
2019-06-07T11:38:01.932Z,50.43
2019-06-07T11:39:01.929Z,50.53
2019-06-07T11:40:01.946Z,50.53
2019-06-07T11:41:01.909Z,51.03
2019-06-07T11:42:01.938Z,50.93
2019-06-07T11:43:02.006Z,50.43
2019-06-07T11:44:01.877Z,50.43
2019-06-07T11:45:01.868Z,49.84
2019-06-07T11:46:01.852Z,49.44
2019-06-07T11:47:01.890Z,49.74
2019-06-07T11:48:01.872Z,49.74
2019-06-07T11:49:01.869Z,49.64
2019-06-07T11:50:01.819Z,49.84
2019-06-07T11:51:01.790Z,49.54
2019-06-07T11:52:01.796Z,48.26
2019-06-07T11:53:01.768Z,48.95
2019-06-07T11:54:01.768Z,49.05
2019-06-07T11:55:01.811Z,49.25
2019-06-07T11:56:01.753Z,48.63
2019-06-07T11:57:01.728Z,48.55
2019-06-07T11:58:01.730Z,48.63
2019-06-07T11:59:01.711Z,48.43
2019-06-07T12:00:01.687Z,48.63
2019-06-07T12:01:01.751Z,48.53
2019-06-07T12:02:01.687Z,48.43
2019-06-07T12:03:01.687Z,48.63
2019-06-07T12:04:01.648Z,48.63
2019-06-07T12:05:01.660Z,48.33
2019-06-07T12:06:01.634Z,48.33
2019-06-07T12:07:01.657Z,46.95
2019-06-07T12:08:01.630Z,47.84
2019-06-07T12:09:01.613Z,47.94
2019-06-07T12:10:01.574Z,48.33
2019-06-07T12:11:01.595Z,48.33
2019-06-07T12:12:01.575Z,47.25
2019-06-07T12:13:01.593Z,47.44
2019-06-07T12:14:01.607Z,47.44
2019-06-07T12:15:01.531Z,47.54
2019-06-07T12:16:01.537Z,47.54
2019-06-07T12:17:01.530Z,48.14
2019-06-07T12:18:01.513Z,48.33
2019-06-07T12:19:01.552Z,47.84
2019-06-07T12:20:02.249Z,47.15
2019-06-07T12:21:01.467Z,47.32
2019-06-07T12:22:01.540Z,48.33
2019-06-07T12:23:01.455Z,47.54
2019-06-07T12:24:01.458Z,46.95
2019-06-07T12:25:01.434Z,47.25
2019-06-07T12:26:01.466Z,46.95
2019-06-07T12:27:01.477Z,46.93
2019-06-07T12:28:01.401Z,47.05
2019-06-07T12:29:01.388Z,47.15
2019-06-07T12:30:09.193Z,46.55
2019-06-07T12:31:02.372Z,46.85
2019-06-07T12:32:01.350Z,46.23
2019-06-07T12:33:01.376Z,46.63
2019-06-07T12:34:01.335Z,46.73
2019-06-07T12:35:01.334Z,46.85
2019-06-07T12:36:01.312Z,46.53
2019-06-07T12:37:01.316Z,46.73
2019-06-07T12:38:01.325Z,46.45
2019-06-07T12:39:01.334Z,46.53
2019-06-07T12:40:01.259Z,45.74
2019-06-07T12:41:01.286Z,45.74
2019-06-07T12:42:01.249Z,45.64
2019-06-07T12:43:01.235Z,45.94
2019-06-07T12:44:01.251Z,45.64
2019-06-07T12:45:01.270Z,45.94
2019-06-07T12:46:01.207Z,45.84
2019-06-07T12:47:01.205Z,45.74
2019-06-07T12:48:01.188Z,45.64
2019-06-07T12:49:01.168Z,46.44
2019-06-07T12:50:01.179Z,46.33
2019-06-07T12:51:01.206Z,46.33
2019-06-07T12:52:01.147Z,46.73
2019-06-07T12:53:01.128Z,46.33
2019-06-07T12:54:01.133Z,45.74
2019-06-07T12:55:01.107Z,46.04
2019-06-07T12:56:01.122Z,46.14
2019-06-07T12:57:01.143Z,45.54
2019-06-07T12:58:01.076Z,45.84
2019-06-07T12:59:01.061Z,45.74
2019-06-07T13:00:01.049Z,45.35
2019-06-07T13:01:01.106Z,45.35
2019-06-07T13:02:02.443Z,45.45
2019-06-07T13:03:01.128Z,45.64